createdAt,value
2022-08-12T00:00:19.964Z,722.08
2022-08-12T00:01:19.957Z,722.97
2022-08-12T00:02:19.937Z,723.73
2022-08-12T00:03:20.871Z,724.69
2022-08-12T00:04:19.951Z,724.64
2022-08-12T00:05:19.901Z,725.33
2022-08-12T00:06:19.885Z,725.29
2022-08-12T00:07:19.875Z,726.08
2022-08-12T00:08:30.880Z,725.90
2022-08-12T00:09:23.154Z,726.41
2022-08-12T00:10:19.853Z,727.27
2022-08-12T00:11:19.872Z,727.98
2022-08-12T00:12:19.846Z,728.69
2022-08-12T00:13:19.818Z,729.16
2022-08-12T00:14:19.802Z,730.07
2022-08-12T00:15:19.800Z,731.25
2022-08-12T00:16:19.810Z,732.45
2022-08-12T00:17:20.634Z,733.10
2022-08-12T00:18:19.771Z,733.63
2022-08-12T00:19:19.759Z,734.72
2022-08-12T00:20:19.737Z,735.14
2022-08-12T00:21:19.750Z,736.11
2022-08-12T00:22:19.730Z,736.93
2022-08-12T00:23:19.702Z,737.43
2022-08-12T00:24:19.693Z,738.21
2022-08-12T00:25:19.678Z,739.39
2022-08-12T00:26:22.629Z,739.69
2022-08-12T00:27:19.668Z,740.09
2022-08-12T00:28:19.654Z,739.89
2022-08-12T00:29:19.639Z,740.33
2022-08-12T00:30:19.646Z,739.95
2022-08-12T00:31:19.651Z,739.82
2022-08-12T00:32:35.144Z,739.17
2022-08-12T00:33:19.593Z,739.06
2022-08-12T00:34:19.593Z,739.19
2022-08-12T00:35:19.582Z,739.34
2022-08-12T00:36:35.066Z,739.39
2022-08-12T00:37:19.552Z,738.79
2022-08-12T00:38:19.557Z,738.67
2022-08-12T00:39:19.585Z,738.99
2022-08-12T00:40:19.542Z,738.52
2022-08-12T00:41:19.535Z,738.31
2022-08-12T00:42:19.504Z,738.37
2022-08-12T00:43:19.487Z,738.98
2022-08-12T00:44:19.481Z,738.64
2022-08-12T00:45:19.464Z,738.57
2022-08-12T00:47:28.740Z,739.89
2022-08-12T00:48:29.694Z,739.98
2022-08-12T00:49:29.683Z,741.46
2022-08-12T00:50:29.673Z,741.65
2022-08-12T00:51:29.665Z,742.30
2022-08-12T00:52:29.685Z,743.22
2022-08-12T00:53:29.644Z,743.96
2022-08-12T00:54:29.626Z,744.16
2022-08-12T00:55:29.620Z,744.83
2022-08-12T00:56:29.603Z,745.18
2022-08-12T00:57:29.616Z,745.00
2022-08-12T00:58:29.582Z,744.53
2022-08-12T00:59:29.579Z,744.12
2022-08-12T01:00:29.592Z,744.12
2022-08-12T01:01:29.637Z,744.29
2022-08-12T01:02:29.562Z,744.32
2022-08-12T01:03:29.534Z,744.80
2022-08-12T01:04:29.519Z,745.38
2022-08-12T01:05:29.520Z,745.85
2022-08-12T01:06:29.498Z,746.55
2022-08-12T01:07:29.511Z,747.33
2022-08-12T01:08:29.487Z,748.45
2022-08-12T01:09:29.464Z,749.31
2022-08-12T01:10:29.740Z,749.66
2022-08-12T01:11:29.444Z,750.27
2022-08-12T01:12:29.454Z,751.30
2022-08-12T01:13:29.421Z,751.62
2022-08-12T01:14:29.411Z,752.55
2022-08-12T01:15:29.398Z,752.93
2022-08-12T01:16:29.393Z,753.44
2022-08-12T01:17:29.397Z,753.91
2022-08-12T01:18:29.372Z,754.01
2022-08-12T01:19:29.355Z,754.35
2022-08-12T01:20:29.343Z,754.16
2022-08-12T01:21:29.347Z,754.33
2022-08-12T01:22:29.348Z,754.35
2022-08-12T01:23:29.332Z,754.70
2022-08-12T01:24:31.096Z,755.26
2022-08-12T01:25:29.289Z,755.70
2022-08-12T01:26:29.276Z,755.96
2022-08-12T01:27:29.283Z,755.92
2022-08-12T01:28:29.281Z,756.23
2022-08-12T01:29:32.690Z,756.60
2022-08-12T01:30:29.234Z,756.74
2022-08-12T01:31:29.365Z,756.56
2022-08-12T01:32:29.297Z,756.18
2022-08-12T01:33:29.207Z,755.72
2022-08-12T01:34:36.270Z,755.34
2022-08-12T01:35:29.173Z,754.15
2022-08-12T01:36:29.168Z,753.02
2022-08-12T01:37:29.178Z,752.14
2022-08-12T01:38:29.794Z,752.31
2022-08-12T01:39:29.174Z,752.33
2022-08-12T01:40:33.684Z,752.45
2022-08-12T01:41:29.123Z,752.07
2022-08-12T01:42:29.109Z,752.28
2022-08-12T01:43:29.092Z,752.61
2022-08-12T01:44:29.076Z,753.34
2022-08-12T01:45:29.063Z,753.90
2022-08-12T01:46:29.083Z,754.37
2022-08-12T01:47:29.047Z,754.84
2022-08-12T01:48:29.033Z,755.42
2022-08-12T01:49:29.021Z,756.29
2022-08-12T01:50:29.009Z,756.67
2022-08-12T01:52:15.637Z,757.36
2022-08-12T01:52:28.991Z,757.74
2022-08-12T01:53:28.971Z,758.01
2022-08-12T01:54:28.962Z,758.53
2022-08-12T01:55:28.968Z,758.87
2022-08-12T01:56:28.941Z,759.12
2022-08-12T01:57:59.574Z,759.26
2022-08-12T01:58:28.924Z,758.95
2022-08-12T01:59:28.910Z,758.77
2022-08-12T02:00:35.840Z,758.86
2022-08-12T02:01:28.942Z,758.80
2022-08-12T02:02:28.871Z,758.03
2022-08-12T02:03:28.861Z,756.49
2022-08-12T02:04:28.887Z,754.51
2022-08-12T02:05:28.842Z,752.97
2022-08-12T02:06:28.833Z,752.61
2022-08-12T02:07:28.821Z,752.23
2022-08-12T02:08:28.805Z,752.30
2022-08-12T02:09:28.825Z,752.68
2022-08-12T02:10:49.191Z,753.23
2022-08-12T02:11:28.770Z,754.05
2022-08-12T02:12:28.772Z,754.05
2022-08-12T02:13:48.640Z,753.33
2022-08-12T02:14:28.766Z,753.19
2022-08-12T02:15:28.730Z,753.18
2022-08-12T02:16:28.715Z,753.65
2022-08-12T02:17:55.285Z,754.56
2022-08-12T02:18:28.698Z,755.09
2022-08-12T02:19:28.711Z,755.58
2022-08-12T02:20:35.362Z,756.26
2022-08-12T02:21:28.659Z,757.17
2022-08-12T02:22:28.652Z,757.69
2022-08-12T02:23:28.652Z,758.28
2022-08-12T02:24:28.658Z,758.98
2022-08-12T02:25:28.620Z,759.49
2022-08-12T02:26:28.614Z,760.25
2022-08-12T02:27:28.595Z,760.60
2022-08-12T02:28:28.590Z,761.25
2022-08-12T02:29:28.600Z,761.52
2022-08-12T02:30:33.176Z,760.65
2022-08-12T02:31:28.553Z,759.28
2022-08-12T02:32:28.545Z,758.22
2022-08-12T02:33:28.535Z,757.87
2022-08-12T02:34:28.542Z,757.64
2022-08-12T02:35:28.513Z,757.75
2022-08-12T02:36:28.495Z,758.19
2022-08-12T02:37:28.483Z,758.74
2022-08-12T02:38:28.475Z,759.43
2022-08-12T02:39:28.543Z,759.98
2022-08-12T02:40:28.456Z,760.82
2022-08-12T02:41:28.453Z,761.47
2022-08-12T02:42:28.433Z,761.49
2022-08-12T02:43:28.437Z,761.63
2022-08-12T02:44:28.455Z,761.85
2022-08-12T02:45:28.416Z,762.00
2022-08-12T02:46:28.388Z,762.01
2022-08-12T02:48:37.331Z,763.07
2022-08-12T02:49:38.346Z,762.42
2022-08-12T02:50:38.317Z,762.44
2022-08-12T02:51:38.297Z,762.32
2022-08-12T02:52:38.281Z,762.51
2022-08-12T02:53:38.274Z,763.27
2022-08-12T02:54:38.290Z,763.62
2022-08-12T02:55:38.249Z,763.44
2022-08-12T02:56:38.319Z,762.74
2022-08-12T02:57:38.231Z,762.32
2022-08-12T02:58:41.369Z,762.46
2022-08-12T02:59:38.229Z,762.72
2022-08-12T03:00:38.375Z,762.76
2022-08-12T03:01:47.647Z,763.22
2022-08-12T03:02:38.179Z,763.77
2022-08-12T03:03:38.169Z,763.91
2022-08-12T03:04:43.041Z,763.97
2022-08-12T03:05:38.608Z,764.23
2022-08-12T03:06:38.128Z,763.90
2022-08-12T03:07:59.627Z,762.94
2022-08-12T03:08:38.111Z,762.01
2022-08-12T03:10:04.912Z,761.22
2022-08-12T03:10:38.109Z,760.90
2022-08-12T03:11:42.146Z,761.02
2022-08-12T03:12:48.798Z,761.33
2022-08-12T03:13:38.055Z,762.09
2022-08-12T03:14:38.044Z,762.75
2022-08-12T03:15:38.040Z,763.10
2022-08-12T03:16:38.228Z,763.64
2022-08-12T03:17:38.042Z,764.48
2022-08-12T03:18:37.997Z,765.47
2022-08-12T03:19:38.087Z,766.10
2022-08-12T03:20:37.972Z,766.72
2022-08-12T03:21:55.313Z,767.50
2022-08-12T03:22:37.974Z,767.94
2022-08-12T03:23:37.946Z,768.21
2022-08-12T03:24:37.941Z,768.54
2022-08-12T03:25:37.923Z,768.59
2022-08-12T03:26:37.945Z,769.33
2022-08-12T03:27:37.927Z,770.09
2022-08-12T03:28:37.896Z,770.89
2022-08-12T03:29:49.858Z,771.76
2022-08-12T03:30:37.867Z,772.43
2022-08-12T03:31:37.850Z,772.98
2022-08-12T03:32:37.873Z,773.28
2022-08-12T03:33:37.849Z,772.53
2022-08-12T03:34:37.820Z,771.75
2022-08-12T03:35:41.140Z,771.64
2022-08-12T03:36:37.802Z,771.78
2022-08-12T03:37:37.812Z,771.56
2022-08-12T03:38:37.775Z,771.92
2022-08-12T03:39:37.773Z,772.26
2022-08-12T03:40:37.758Z,772.75
2022-08-12T03:41:37.745Z,773.16
2022-08-12T03:42:38.347Z,773.30
2022-08-12T03:43:37.722Z,773.43
2022-08-12T03:44:37.711Z,773.73
2022-08-12T03:45:50.093Z,773.85
2022-08-12T03:46:37.692Z,773.22
2022-08-12T03:47:37.677Z,772.17
2022-08-12T03:48:37.704Z,771.54
2022-08-12T03:49:37.655Z,771.43
2022-08-12T03:50:37.639Z,771.70
2022-08-12T03:51:37.639Z,772.07
2022-08-12T03:52:37.620Z,772.62
2022-08-12T03:53:37.616Z,773.23
2022-08-12T03:54:42.125Z,773.80
2022-08-12T03:55:37.598Z,774.23
2022-08-12T03:56:37.599Z,774.80
2022-08-12T03:57:37.599Z,775.05
2022-08-12T03:58:37.559Z,775.43
2022-08-12T03:59:37.539Z,775.98
2022-08-12T04:00:37.637Z,776.43
2022-08-12T04:01:40.865Z,776.68
2022-08-12T04:02:37.532Z,776.89
2022-08-12T04:03:37.512Z,776.99
2022-08-12T04:04:37.492Z,777.26
2022-08-12T04:05:56.092Z,777.17
2022-08-12T04:06:37.546Z,777.17
2022-08-12T04:07:37.485Z,776.92
2022-08-12T04:08:37.444Z,777.07
2022-08-12T04:09:37.443Z,775.69
2022-08-12T04:10:37.422Z,774.24
2022-08-12T04:11:37.413Z,772.53
2022-08-12T04:12:37.455Z,772.13
2022-08-12T04:13:37.389Z,771.51
2022-08-12T04:14:37.379Z,771.18
2022-08-12T04:15:37.377Z,771.01
2022-08-12T04:16:37.359Z,770.93
2022-08-12T04:17:37.403Z,770.98
2022-08-12T04:18:37.335Z,771.07
2022-08-12T04:19:37.329Z,771.29
2022-08-12T04:20:37.319Z,771.06
2022-08-12T04:21:37.304Z,770.73
2022-08-12T04:22:37.317Z,771.24
2022-08-12T04:23:37.287Z,771.41
2022-08-12T04:24:38.023Z,771.83
2022-08-12T04:25:37.261Z,772.04
2022-08-12T04:26:37.258Z,772.31
2022-08-12T04:27:37.260Z,772.54
2022-08-12T04:28:37.235Z,772.51
2022-08-12T04:30:29.422Z,772.35
2022-08-12T04:30:37.201Z,772.84
2022-08-12T04:31:37.192Z,772.96
2022-08-12T04:32:40.966Z,773.03
2022-08-12T04:33:37.169Z,773.20
2022-08-12T04:34:37.155Z,773.44
2022-08-12T04:35:37.154Z,773.48
2022-08-12T04:36:37.140Z,773.47
2022-08-12T04:37:58.220Z,773.64
2022-08-12T04:38:37.124Z,773.71
2022-08-12T04:39:37.120Z,773.67
2022-08-12T04:40:37.092Z,773.83
2022-08-12T04:41:37.082Z,773.79
2022-08-12T04:42:37.109Z,773.61
2022-08-12T04:43:59.672Z,773.64
2022-08-12T04:44:37.053Z,773.68
2022-08-12T04:45:37.047Z,773.24
2022-08-12T04:46:37.023Z,773.00
2022-08-12T04:47:37.011Z,773.03
2022-08-12T04:49:46.109Z,773.90
2022-08-12T04:50:46.945Z,773.50
2022-08-12T04:51:56.785Z,773.59
2022-08-12T04:52:46.952Z,773.63
2022-08-12T04:53:46.912Z,773.68
2022-08-12T04:54:46.908Z,773.41
2022-08-12T04:55:46.897Z,773.05
2022-08-12T04:57:04.259Z,772.48
2022-08-12T04:57:47.025Z,771.80
2022-08-12T04:58:52.024Z,770.84
2022-08-12T04:59:48.926Z,770.44
2022-08-12T05:00:46.840Z,769.41
2022-08-12T05:01:46.825Z,768.79
2022-08-12T05:02:47.242Z,768.60
2022-08-12T05:03:47.469Z,768.59
2022-08-12T05:04:46.797Z,768.03
2022-08-12T05:05:46.783Z,767.25
2022-08-12T05:06:46.777Z,766.42
2022-08-12T05:07:54.882Z,765.81
2022-08-12T05:08:46.756Z,765.66
2022-08-12T05:09:59.126Z,765.33
2022-08-12T05:10:46.748Z,764.62
2022-08-12T05:11:54.359Z,764.42
2022-08-12T05:12:46.736Z,764.08
2022-08-12T05:13:46.698Z,763.88
2022-08-12T05:14:46.693Z,763.10
2022-08-12T05:15:53.026Z,762.85
2022-08-12T05:16:46.659Z,762.24
2022-08-12T05:17:47.097Z,761.64
2022-08-12T05:18:46.653Z,760.89
2022-08-12T05:19:46.629Z,760.47
2022-08-12T05:20:46.617Z,759.58
2022-08-12T05:21:46.610Z,758.65
2022-08-12T05:22:46.621Z,758.23
2022-08-12T05:23:46.615Z,757.48
2022-08-12T05:24:46.576Z,756.51
2022-08-12T05:25:46.559Z,755.47
2022-08-12T05:26:46.548Z,754.29
2022-08-12T05:27:55.454Z,752.88
2022-08-12T05:28:46.542Z,751.99
2022-08-12T05:30:08.355Z,750.95
2022-08-12T05:30:46.511Z,749.96
2022-08-12T05:31:48.113Z,749.05
2022-08-12T05:32:46.513Z,747.96
2022-08-12T05:33:46.475Z,746.96
2022-08-12T05:34:46.467Z,745.74
2022-08-12T05:35:46.443Z,744.37
2022-08-12T05:36:46.433Z,742.97
2022-08-12T05:37:46.454Z,741.62
2022-08-12T05:38:46.446Z,740.56
2022-08-12T05:39:46.466Z,739.43
2022-08-12T05:40:46.416Z,738.60
2022-08-12T05:41:46.415Z,737.54
2022-08-12T05:42:46.697Z,736.52
2022-08-12T05:43:46.362Z,735.39
2022-08-12T05:44:46.356Z,734.37
2022-08-12T05:45:46.335Z,733.30
2022-08-12T05:46:46.330Z,732.21
2022-08-12T05:47:53.774Z,731.26
2022-08-12T05:48:46.312Z,730.43
2022-08-12T05:49:46.303Z,729.52
2022-08-12T05:50:46.308Z,728.69
2022-08-12T05:51:46.272Z,727.83
2022-08-12T05:52:46.305Z,727.23
2022-08-12T05:53:46.279Z,726.49
2022-08-12T05:54:57.063Z,725.73
2022-08-12T05:55:46.231Z,725.30
2022-08-12T05:56:46.225Z,724.68
2022-08-12T05:57:46.254Z,724.99
2022-08-12T05:58:46.220Z,724.62
2022-08-12T05:59:46.192Z,723.76
2022-08-12T06:00:46.178Z,723.27
2022-08-12T06:02:09.254Z,722.61
2022-08-12T06:02:46.275Z,721.86
2022-08-12T06:03:46.158Z,720.98
2022-08-12T06:04:46.122Z,720.34
2022-08-12T06:05:54.904Z,719.48
2022-08-12T06:06:46.130Z,719.14
2022-08-12T06:08:02.119Z,718.35
2022-08-12T06:08:46.090Z,718.06
2022-08-12T06:09:46.083Z,717.77
2022-08-12T06:10:46.172Z,717.63
2022-08-12T06:12:04.751Z,717.67
2022-08-12T06:12:46.082Z,717.60
2022-08-12T06:13:53.728Z,718.18
2022-08-12T06:14:46.029Z,717.73
2022-08-12T06:15:46.008Z,717.24
2022-08-12T06:16:46.052Z,718.05
2022-08-12T06:17:46.043Z,717.67
2022-08-12T06:18:46.049Z,716.87
2022-08-12T06:20:26.591Z,716.04
2022-08-12T06:20:45.952Z,715.29
2022-08-12T06:21:46.010Z,714.59
2022-08-12T06:22:45.949Z,714.36
2022-08-12T06:23:45.959Z,713.32
2022-08-12T06:24:45.911Z,713.08
2022-08-12T06:25:45.917Z,712.49
2022-08-12T06:26:45.889Z,712.03
2022-08-12T06:28:06.824Z,712.64
2022-08-12T06:28:45.894Z,713.59
2022-08-12T06:30:08.847Z,712.93
2022-08-12T06:30:53.106Z,713.36
2022-08-12T06:31:45.875Z,712.62
2022-08-12T06:32:51.808Z,711.90
2022-08-12T06:34:00.577Z,711.16
2022-08-12T06:35:24.027Z,710.41
2022-08-12T06:35:48.867Z,710.11
2022-08-12T06:36:46.456Z,709.57
2022-08-12T06:50:07.074Z,704.22
2022-08-12T06:55:19.507Z,703.98
2022-08-12T06:55:26.449Z,703.36
2022-08-12T06:56:14.820Z,708.97
2022-08-12T06:56:59.706Z,703.40
2022-08-12T06:57:02.953Z,703.87
2022-08-12T07:00:34.689Z,702.29
2022-08-12T07:02:37.839Z,700.73
2022-08-12T07:06:34.194Z,698.83
2022-08-12T07:11:03.646Z,698.77
2022-08-12T07:22:02.510Z,695.06
2022-08-12T07:22:02.614Z,694.97
2022-08-12T07:22:07.186Z,696.14
2022-08-12T07:22:12.001Z,695.11
2022-08-12T07:23:00.550Z,696.17
2022-08-12T07:23:31.156Z,697.09
2022-08-12T07:23:39.350Z,696.09
2022-08-12T07:23:47.543Z,697.16
2022-08-12T07:24:00.544Z,696.08
2022-08-12T07:24:51.035Z,696.74
2022-08-12T07:24:51.037Z,695.76
2022-08-12T07:25:00.640Z,695.25
2022-08-12T07:26:00.506Z,694.72
2022-08-12T07:27:00.543Z,693.83
2022-08-12T07:28:00.517Z,693.84
2022-08-12T07:29:00.493Z,694.82
2022-08-12T07:30:04.762Z,693.92
2022-08-12T07:31:03.445Z,693.14
2022-08-12T07:32:15.252Z,692.68
2022-08-12T07:33:01.863Z,691.91
2022-08-12T07:34:00.419Z,692.27
2022-08-12T07:35:00.419Z,691.97
2022-08-12T07:36:00.415Z,691.52
2022-08-12T07:37:00.490Z,690.53
2022-08-12T07:38:00.833Z,689.94
2022-08-12T07:39:00.356Z,689.04
2022-08-12T07:40:01.333Z,689.36
2022-08-12T07:41:00.348Z,689.33
2022-08-12T07:42:00.318Z,688.99
2022-08-12T07:43:00.330Z,688.39
2022-08-12T07:44:04.473Z,687.98
2022-08-12T07:45:00.290Z,687.69
2022-08-12T07:46:00.289Z,686.78
2022-08-12T07:47:00.260Z,686.55
2022-08-12T07:48:00.291Z,686.14
2022-08-12T07:49:00.244Z,685.70
2022-08-12T07:50:03.593Z,685.30
2022-08-12T07:51:00.232Z,685.71
2022-08-12T07:52:00.285Z,687.15
2022-08-12T07:53:00.229Z,687.35
2022-08-12T07:54:02.952Z,686.67
2022-08-12T07:55:00.193Z,686.98
2022-08-12T07:56:00.201Z,686.11
2022-08-12T07:57:00.163Z,685.19
2022-08-12T07:58:00.197Z,684.68
2022-08-12T07:59:00.158Z,683.37
2022-08-12T08:00:00.471Z,683.35
2022-08-12T08:01:00.336Z,682.55
2022-08-12T08:02:00.206Z,682.77
2022-08-12T08:03:00.116Z,682.07
2022-08-12T08:04:00.141Z,683.27
2022-08-12T08:05:00.082Z,682.67
2022-08-12T08:06:00.107Z,682.22
2022-08-12T08:07:00.066Z,682.32
2022-08-12T08:08:00.051Z,682.43
2022-08-12T08:09:00.046Z,681.45
2022-08-12T08:10:00.305Z,680.85
2022-08-12T08:11:04.182Z,680.80
2022-08-12T08:11:59.998Z,681.73
2022-08-12T08:13:00.239Z,681.68
2022-08-12T08:14:00.000Z,681.38
2022-08-12T08:14:59.967Z,680.57
2022-08-12T08:16:04.097Z,679.83
2022-08-12T08:16:59.943Z,679.47
2022-08-12T08:17:59.938Z,679.31
2022-08-12T08:19:00.611Z,679.07
2022-08-12T08:20:03.359Z,679.11
2022-08-12T08:20:59.949Z,678.67
2022-08-12T08:22:00.820Z,678.61
2022-08-12T08:22:59.885Z,678.28
2022-08-12T08:24:05.112Z,677.26
2022-08-12T08:24:59.868Z,676.44
2022-08-12T08:25:59.894Z,676.45
2022-08-12T08:27:03.039Z,675.84
2022-08-12T08:27:59.828Z,675.06
2022-08-12T08:28:59.868Z,676.01
2022-08-12T08:29:59.790Z,675.74
2022-08-12T08:30:59.816Z,675.43
2022-08-12T08:31:59.790Z,675.48
2022-08-12T08:32:59.771Z,675.62
2022-08-12T08:34:33.190Z,675.64
2022-08-12T08:34:59.758Z,675.98
2022-08-12T08:35:59.781Z,676.47
2022-08-12T08:36:59.737Z,677.22
2022-08-12T08:37:59.759Z,676.97
2022-08-12T08:38:59.753Z,676.86
2022-08-12T08:39:59.728Z,677.50
2022-08-12T08:40:59.726Z,677.10
2022-08-12T08:42:19.187Z,676.76
2022-08-12T08:42:59.667Z,676.02
2022-08-12T08:43:59.669Z,675.41
2022-08-12T08:44:59.668Z,675.04
2022-08-12T08:45:59.756Z,675.24
2022-08-12T08:46:59.659Z,674.37
2022-08-12T08:48:00.373Z,673.57
2022-08-12T08:48:59.710Z,673.06
2022-08-12T08:49:59.615Z,671.87
2022-08-12T08:51:04.846Z,671.84
2022-08-12T08:51:59.559Z,672.24
2022-08-12T08:52:59.555Z,672.20
2022-08-12T08:53:59.593Z,671.94
2022-08-12T08:54:59.520Z,671.56
2022-08-12T08:56:05.771Z,671.21
2022-08-12T08:57:00.523Z,671.15
2022-08-12T09:15:35.778Z,669.06
2022-08-12T09:16:08.810Z,669.92
2022-08-12T09:16:23.935Z,670.68
2022-08-12T09:16:41.314Z,670.38
2022-08-12T09:16:50.513Z,668.80
2022-08-12T09:17:08.843Z,669.51
2022-08-12T09:17:21.351Z,668.62
2022-08-12T09:17:42.862Z,669.79
2022-08-12T09:19:08.749Z,668.91
2022-08-12T09:20:09.105Z,669.43
2022-08-12T09:21:08.779Z,669.43
2022-08-12T09:22:09.466Z,668.71
2022-08-12T09:23:57.050Z,668.41
2022-08-12T09:24:08.735Z,668.84
2022-08-12T09:25:08.723Z,668.90
2022-08-12T09:26:08.699Z,668.63
2022-08-12T09:27:12.263Z,670.01
2022-08-12T09:28:10.733Z,670.92
2022-08-12T09:29:12.318Z,670.62
2022-08-12T09:30:13.433Z,670.71
2022-08-12T09:32:06.913Z,669.99
2022-08-12T09:32:09.946Z,669.47
2022-08-12T09:33:18.455Z,668.89
2022-08-12T09:34:28.503Z,667.90
2022-08-12T09:35:21.918Z,667.48
2022-08-12T09:36:08.592Z,667.12
2022-08-12T09:37:19.539Z,668.26
2022-08-12T09:38:28.142Z,669.06
2022-08-12T09:40:05.115Z,670.12
2022-08-12T09:40:57.840Z,669.76
2022-08-12T09:42:33.859Z,670.01
2022-08-12T09:42:40.382Z,671.89
2022-08-12T09:43:16.862Z,671.58
2022-08-12T09:44:39.271Z,670.96
2022-08-12T09:45:17.810Z,670.30
2022-08-12T09:46:21.728Z,669.43
2022-08-12T09:47:10.618Z,668.47
2022-08-12T09:48:08.433Z,668.77
2022-08-12T09:49:13.589Z,668.29
2022-08-12T09:50:08.419Z,667.96
2022-08-12T09:51:17.163Z,668.83
2022-08-12T09:52:08.395Z,668.28
2022-08-12T09:53:15.041Z,667.63
2022-08-12T09:54:34.215Z,667.02
2022-08-12T09:55:08.430Z,666.56
2022-08-12T09:57:00.080Z,666.53
2022-08-12T09:58:44.821Z,666.30
2022-08-12T09:58:57.108Z,666.16
2022-08-12T09:59:08.324Z,666.72
2022-08-12T10:00:12.618Z,667.53
2022-08-12T10:01:15.299Z,667.36
2022-08-12T10:02:44.867Z,666.75
2022-08-12T10:03:08.688Z,665.20
2022-08-12T10:04:08.372Z,664.67
2022-08-12T10:05:13.329Z,663.92
2022-08-12T10:06:20.595Z,663.48
2022-08-12T10:07:12.308Z,664.04
2022-08-12T10:08:08.240Z,664.29
2022-08-12T10:09:08.688Z,664.27
2022-08-12T10:10:08.207Z,663.32
2022-08-12T10:11:08.188Z,664.35
2022-08-12T10:12:11.288Z,665.59
2022-08-12T10:13:11.967Z,666.75
2022-08-12T10:14:13.334Z,666.62
2022-08-12T10:15:08.173Z,666.95
2022-08-12T10:16:08.259Z,667.69
2022-08-12T10:17:08.514Z,668.48
2022-08-12T10:18:08.254Z,668.65
2022-08-12T10:19:17.326Z,668.04
2022-08-12T10:20:09.846Z,667.38
2022-08-12T10:21:08.118Z,666.87
2022-08-12T10:22:17.058Z,666.96
2022-08-12T10:23:08.075Z,666.65
2022-08-12T10:24:08.085Z,666.87
2022-08-12T10:25:17.698Z,666.95
2022-08-12T10:26:38.001Z,666.52
2022-08-12T10:27:08.182Z,665.17
2022-08-12T10:28:14.895Z,664.74
2022-08-12T10:30:01.297Z,665.10
2022-08-12T10:30:41.671Z,664.51
2022-08-12T10:31:16.501Z,664.43
2022-08-12T10:32:22.150Z,664.35
2022-08-12T10:33:17.879Z,664.24
2022-08-12T10:34:14.848Z,663.56
2022-08-12T10:35:07.960Z,663.15
2022-08-12T10:36:08.133Z,664.32
2022-08-12T10:40:46.277Z,663.10
2022-08-12T10:53:45.402Z,666.30
2022-08-12T11:01:26.081Z,662.82
2022-08-12T11:01:49.668Z,664.51
2022-08-12T11:01:50.331Z,662.78
2022-08-12T11:04:19.068Z,662.54
2022-08-12T11:04:24.119Z,662.47
2022-08-12T11:04:26.007Z,665.69
2022-08-12T11:04:27.575Z,665.08
2022-08-12T11:04:31.296Z,662.02
2022-08-12T11:07:03.526Z,664.29
2022-08-12T11:07:06.647Z,666.19
2022-08-12T11:08:35.192Z,665.83
2022-08-12T11:08:38.602Z,665.48
2022-08-12T11:09:10.230Z,665.30
2022-08-12T11:10:06.923Z,665.64
2022-08-12T11:11:13.396Z,665.92
2022-08-12T11:12:34.899Z,665.38
2022-08-12T11:13:07.221Z,664.15
2022-08-12T11:14:06.853Z,663.24
2022-08-12T11:15:18.503Z,663.44
2022-08-12T11:16:22.091Z,663.29
2022-08-12T11:17:34.736Z,663.45
2022-08-12T11:18:06.835Z,663.32
2022-08-12T11:19:06.799Z,663.06
2022-08-12T11:20:06.683Z,663.69
2022-08-12T11:21:06.665Z,663.69
2022-08-12T11:22:06.669Z,663.01
2022-08-12T11:23:25.206Z,663.15
2022-08-12T11:24:06.662Z,663.65
2022-08-12T11:25:10.593Z,663.73
2022-08-12T11:26:07.244Z,663.67
2022-08-12T11:27:07.907Z,663.94
2022-08-12T11:28:06.645Z,664.28
2022-08-12T11:29:22.837Z,663.87
2022-08-12T11:30:30.747Z,664.10
2022-08-12T11:31:06.598Z,663.84
2022-08-12T11:32:06.549Z,663.80
2022-08-12T11:33:11.639Z,663.71
2022-08-12T11:34:52.904Z,663.14
2022-08-12T11:35:06.535Z,663.04
2022-08-12T11:36:14.840Z,662.10
2022-08-12T11:37:06.468Z,661.55
2022-08-12T11:38:06.457Z,661.65
2022-08-12T11:39:06.456Z,661.79
2022-08-12T11:40:06.447Z,661.29
2022-08-12T11:41:06.530Z,661.09
2022-08-12T11:42:06.439Z,661.29
2022-08-12T11:43:19.349Z,660.97
2022-08-12T11:44:35.703Z,660.63
2022-08-12T11:45:06.375Z,661.80
2022-08-12T11:46:06.361Z,661.40
2022-08-12T11:47:09.555Z,661.24
2022-08-12T11:48:06.361Z,661.94
2022-08-12T11:49:06.342Z,662.17
2022-08-12T11:50:06.354Z,661.96
2022-08-12T11:51:06.312Z,661.31
2022-08-12T11:52:27.305Z,661.47
2022-08-12T11:53:06.427Z,662.36
2022-08-12T11:54:06.281Z,662.01
2022-08-12T11:55:06.273Z,662.79
2022-08-12T11:56:06.417Z,661.92
2022-08-12T11:58:17.186Z,661.72
2022-08-12T11:58:34.003Z,661.19
2022-08-12T12:02:06.370Z,660.05
2022-08-12T12:03:06.290Z,661.45
2022-08-12T12:04:06.184Z,663.35
2022-08-12T12:05:06.177Z,662.68
2022-08-12T12:06:06.175Z,662.20
2022-08-12T12:07:06.946Z,661.50
2022-08-12T12:08:38.950Z,661.52
2022-08-12T12:09:08.171Z,661.16
2022-08-12T12:10:06.129Z,660.59
2022-08-12T12:11:09.275Z,660.59
2022-08-12T12:12:06.122Z,660.17
2022-08-12T12:13:23.059Z,659.91
2022-08-12T12:14:08.744Z,659.91
2022-08-12T12:15:06.947Z,660.02
2022-08-12T12:16:06.105Z,659.74
2022-08-12T12:17:06.076Z,659.47
2022-08-12T12:18:06.064Z,659.68
2022-08-12T12:19:06.036Z,660.46
2022-08-12T12:20:06.026Z,661.12
2022-08-12T12:21:06.028Z,660.96
2022-08-12T12:22:06.016Z,660.36
2022-08-12T12:23:06.654Z,660.57
2022-08-12T12:24:05.983Z,661.00
2022-08-12T12:25:13.136Z,660.73
2022-08-12T12:26:07.753Z,660.46
2022-08-12T12:27:05.948Z,660.58
2022-08-12T12:28:06.586Z,659.97
2022-08-12T12:29:11.190Z,660.36
2022-08-12T12:30:17.534Z,659.87
2022-08-12T12:31:15.240Z,660.35
2022-08-12T12:32:11.543Z,660.34
2022-08-12T12:33:05.921Z,660.55
2022-08-12T12:34:05.880Z,660.66
2022-08-12T12:35:14.686Z,661.01
2022-08-12T12:36:20.291Z,660.92
2022-08-12T12:37:05.928Z,660.18
2022-08-12T12:38:12.086Z,659.84
2022-08-12T12:39:06.569Z,659.94
2022-08-12T12:40:06.021Z,659.48
2022-08-12T12:41:16.386Z,659.47
2022-08-12T12:42:42.762Z,659.83
2022-08-12T12:43:05.842Z,659.87
2022-08-12T12:44:05.791Z,659.89
2022-08-12T12:45:19.443Z,659.89
2022-08-12T12:46:05.756Z,660.13
2022-08-12T12:47:29.027Z,659.92
2022-08-12T12:48:05.771Z,659.82
2022-08-12T12:49:06.797Z,659.79
2022-08-12T12:50:06.145Z,659.67
2022-08-12T12:51:05.715Z,659.01
2022-08-12T12:52:18.958Z,659.01
2022-08-12T12:53:05.702Z,659.35
2022-08-12T12:54:09.380Z,659.28
2022-08-12T12:55:05.693Z,659.09
2022-08-12T12:56:05.694Z,659.84
2022-08-12T12:57:05.657Z,659.74
2022-08-12T12:58:05.639Z,660.15
2022-08-12T12:59:05.636Z,659.58
2022-08-12T13:01:26.610Z,658.32
2022-08-12T13:02:15.586Z,658.12
2022-08-12T13:03:19.306Z,659.19
2022-08-12T13:04:15.542Z,659.68
2022-08-12T13:05:16.247Z,660.56
2022-08-12T13:06:15.545Z,661.79
2022-08-12T13:07:15.518Z,661.22
2022-08-12T13:08:15.519Z,660.68
2022-08-12T13:09:15.489Z,660.43
2022-08-12T13:10:15.477Z,661.03
2022-08-12T13:11:15.497Z,661.92
2022-08-12T13:12:15.463Z,661.87
2022-08-12T13:14:09.060Z,661.73
2022-08-12T13:14:28.275Z,662.29
2022-08-12T13:15:15.426Z,661.81
2022-08-12T13:16:20.752Z,661.77
2022-08-12T13:17:16.613Z,662.61
2022-08-12T13:18:15.389Z,662.37
2022-08-12T13:19:15.386Z,661.74
2022-08-12T13:20:37.957Z,661.48
2022-08-12T13:21:15.671Z,661.13
2022-08-12T13:22:15.397Z,660.53
2022-08-12T13:23:36.757Z,659.82
2022-08-12T13:24:15.336Z,659.40
2022-08-12T13:25:15.331Z,659.72
2022-08-12T13:26:15.338Z,659.55
2022-08-12T13:27:15.307Z,659.42
2022-08-12T13:28:15.386Z,659.97
2022-08-12T13:29:15.407Z,660.16
2022-08-12T13:30:15.281Z,660.05
2022-08-12T13:31:15.284Z,660.09
2022-08-12T13:32:31.080Z,660.09
2022-08-12T13:33:17.537Z,659.76